Time;durP1;ratioP1;P1;durP2;ratioP2;P2;SDS_P1;SDS_P2;PMS_P1;PMS_P2;Temp;Humidity;BMP_temperature;BMP_pressure;BME280_temperature;BME280_humidity;BME280_pressure;Samples;Min_cycle;Max_cycle;Signal;HPM_P1;HPM_P2
2022/03/18 00:00:25;;;;;;;7.40;1.92;;;4.60;99.90;;;;;;5029080;28;20046;-73
2022/03/18 00:02:53;;;;;;;5.57;2.03;;;4.50;99.90;;;;;;5028304;28;20049;-73
2022/03/18 00:05:20;;;;;;;7.18;2.22;;;5.10;99.90;;;;;;5029673;28;20057;-73
2022/03/18 00:07:46;;;;;;;7.88;2.22;;;4.30;99.90;;;;;;5012394;28;20052;-74
2022/03/18 00:10:14;;;;;;;9.48;2.30;;;4.50;99.90;;;;;;5032909;28;20103;-73
2022/03/18 00:12:40;;;;;;;6.75;1.95;;;4.40;99.90;;;;;;5032723;28;20095;-73
2022/03/18 00:15:08;;;;;;;7.88;2.42;;;4.50;99.90;;;;;;5032780;28;20045;-73
2022/03/18 00:17:34;;;;;;;5.95;2.28;;;4.40;99.90;;;;;;5032894;28;20053;-73
2022/03/18 00:20:00;;;;;;;6.35;2.30;;;4.20;99.90;;;;;;5015193;28;20053;-73
2022/03/18 00:22:26;;;;;;;7.72;2.05;;;4.40;99.90;;;;;;5031245;28;20053;-72
2022/03/18 00:24:52;;;;;;;6.25;2.15;;;4.60;99.90;;;;;;5031478;28;20049;-73
2022/03/18 00:27:17;;;;;;;6.95;2.40;;;4.40;99.90;;;;;;5031943;28;20111;-73
2022/03/18 00:29:43;;;;;;;6.82;2.17;;;4.40;99.90;;;;;;5031382;28;20073;-73
2022/03/18 00:32:09;;;;;;;7.50;2.22;;;4.10;99.90;;;;;;5032379;28;20056;-73
2022/03/18 00:34:35;;;;;;;7.00;2.10;;;4.40;99.90;;;;;;5030642;28;20077;-72
2022/03/18 00:37:01;;;;;;;8.10;2.50;;;4.30;99.90;;;;;;5032638;28;20041;-73
2022/03/18 00:39:27;;;;;;;8.98;2.15;;;4.20;99.90;;;;;;5032312;28;20100;-73
2022/03/18 00:41:53;;;;;;;4.38;2.00;;;4.40;99.90;;;;;;5032405;28;20889;-73
2022/03/18 00:44:19;;;;;;;8.23;2.30;;;4.20;99.90;;;;;;5031120;28;20115;-73
2022/03/18 00:46:44;;;;;;;8.45;2.45;;;4.10;99.90;;;;;;5030899;28;20053;-73
2022/03/18 00:52:04;;;;;;;6.30;2.33;;;4.20;99.90;;;;;;5032190;28;20128;-73
2022/03/18 00:54:34;;;;;;;10.65;2.30;;;4.00;99.90;;;;;;5014298;28;20123;-73
2022/03/18 00:57:00;;;;;;;6.43;2.10;;;4.10;99.90;;;;;;5031569;28;20057;-73
2022/03/18 00:59:26;;;;;;;9.45;2.38;;;4.00;99.90;;;;;;5032218;28;20045;-73
2022/03/18 01:01:52;;;;;;;9.30;2.22;;;4.10;99.90;;;;;;5031512;28;20128;-73
2022/03/18 01:04:22;;;;;;;5.53;2.40;;;4.60;99.90;;;;;;5014646;28;20050;-73
2022/03/18 01:06:52;;;;;;;6.47;1.95;;;4.10;99.90;;;;;;5032086;28;20053;-72
2022/03/18 01:09:19;;;;;;;5.15;1.77;;;3.90;99.90;;;;;;5032268;28;20412;-73
2022/03/18 01:11:46;;;;;;;6.63;2.35;;;4.10;99.90;;;;;;5031867;28;20128;-73
2022/03/18 01:14:12;;;;;;;7.20;1.85;;;4.00;99.90;;;;;;5031363;28;20049;-72
2022/03/18 01:16:38;;;;;;;8.35;2.08;;;4.30;99.90;;;;;;5031951;28;20512;-73
2022/03/18 01:19:04;;;;;;;7.55;2.20;;;4.50;99.90;;;;;;5029903;28;20140;-73
2022/03/18 01:21:30;;;;;;;7.97;1.73;;;3.90;99.90;;;;;;5031326;28;20405;-73
2022/03/18 01:23:57;;;;;;;5.18;2.00;;;3.90;99.90;;;;;;5031846;28;20133;-73
2022/03/18 01:26:24;;;;;;;6.35;1.90;;;4.10;99.90;;;;;;5030921;28;20072;-73
2022/03/18 01:28:52;;;;;;;8.60;2.90;;;4.00;99.90;;;;;;5031372;28;20104;-73
2022/03/18 01:31:18;;;;;;;6.22;2.30;;;4.50;99.90;;;;;;5031339;28;20107;-74
2022/03/18 01:33:44;;;;;;;6.05;2.53;;;4.40;99.90;;;;;;5029969;28;20061;-73
2022/03/18 01:36:11;;;;;;;9.75;2.92;;;3.90;99.90;;;;;;5031333;28;20478;-73
2022/03/18 01:38:37;;;;;;;6.47;2.15;;;3.90;99.90;;;;;;5014039;28;20104;-73
2022/03/18 01:41:02;;;;;;;7.72;2.78;;;4.10;99.90;;;;;;5013556;28;20053;-73
2022/03/18 01:43:35;;;;;;;7.35;2.92;;;3.90;99.90;;;;;;5031299;28;20053;-73
2022/03/18 01:46:01;;;;;;;8.75;2.75;;;4.50;99.90;;;;;;5030883;28;20509;-73
2022/03/18 01:48:26;;;;;;;7.50;2.58;;;3.90;99.90;;;;;;5013584;28;20084;-72
2022/03/18 01:50:52;;;;;;;6.20;2.80;;;3.90;99.90;;;;;;5031261;28;20041;-73
2022/03/18 01:53:18;;;;;;;8.25;3.13;;;4.10;99.90;;;;;;5034529;28;20049;-74
2022/03/18 01:55:44;;;;;;;9.43;3.38;;;5.20;99.90;;;;;;5034334;28;20061;-74
2022/03/18 01:58:10;;;;;;;9.48;3.08;;;4.60;99.90;;;;;;5017175;28;20049;-74
2022/03/18 02:00:35;;;;;;;6.30;3.33;;;4.30;99.90;;;;;;5034586;28;20474;-74
2022/03/18 02:03:01;;;;;;;6.00;3.17;;;4.40;99.90;;;;;;5034635;28;20046;-74
2022/03/18 02:05:27;;;;;;;7.43;2.80;;;3.80;99.90;;;;;;5033302;28;20038;-74
2022/03/18 02:07:53;;;;;;;8.63;3.22;;;3.80;99.90;;;;;;5034294;28;20046;-74
2022/03/18 02:10:18;;;;;;;9.13;3.60;;;4.50;99.90;;;;;;5016765;28;20053;-74
2022/03/18 02:12:44;;;;;;;7.03;3.08;;;4.00;99.90;;;;;;5016832;28;20049;-74
2022/03/18 02:15:10;;;;;;;5.63;2.95;;;3.90;99.90;;;;;;5033797;28;20481;-74
2022/03/18 02:17:37;;;;;;;8.85;3.70;;;3.80;99.90;;;;;;5034255;28;20131;-74
2022/03/18 02:20:03;;;;;;;8.20;3.13;;;4.90;99.90;;;;;;5034155;28;20573;-74
2022/03/18 02:22:40;;;;;;;6.15;3.83;;;3.90;99.90;;;;;;5033157;28;20045;-74
2022/03/18 02:25:09;;;;;;;7.05;3.20;;;3.90;99.90;;;;;;5032209;28;20417;-74
2022/03/18 02:27:37;;;;;;;8.20;3.67;;;3.80;99.90;;;;;;5034154;28;20072;-74
2022/03/18 02:30:04;;;;;;;10.93;4.10;;;4.30;99.90;;;;;;5034113;28;20588;-74
2022/03/18 02:32:31;;;;;;;7.70;4.32;;;3.80;99.90;;;;;;5032707;28;20049;-74
2022/03/18 02:34:57;;;;;;;12.32;4.85;;;4.10;99.90;;;;;;5033651;28;20045;-74
2022/03/18 02:37:23;;;;;;;10.13;4.00;;;4.20;99.90;;;;;;5033052;28;20536;-73
2022/03/18 02:39:49;;;;;;;9.70;4.63;;;3.90;99.90;;;;;;5034010;28;20149;-73
2022/03/18 02:42:15;;;;;;;10.80;4.15;;;4.00;99.90;;;;;;5032569;28;20049;-73
2022/03/18 02:44:40;;;;;;;10.00;4.65;;;5.00;99.90;;;;;;5016018;28;20053;-73
2022/03/18 02:47:06;;;;;;;10.90;4.15;;;4.20;99.90;;;;;;5033843;28;20042;-73
2022/03/18 02:49:32;;;;;;;7.07;4.20;;;3.90;99.90;;;;;;5032443;28;20042;-74
2022/03/18 02:51:58;;;;;;;9.63;4.53;;;3.90;99.90;;;;;;5033459;28;20180;-73
2022/03/18 02:54:24;;;;;;;12.90;4.30;;;4.50;99.90;;;;;;5032787;28;20104;-73
2022/03/18 02:56:49;;;;;;;12.57;4.35;;;3.80;99.90;;;;;;5015595;28;20406;-74
2022/03/18 02:59:15;;;;;;;13.10;4.55;;;3.60;99.90;;;;;;5033442;28;20041;-74
2022/03/18 03:01:41;;;;;;;8.70;4.88;;;4.60;99.90;;;;;;5032555;28;20046;-74
2022/03/18 03:04:07;;;;;;;8.23;4.13;;;3.90;99.90;;;;;;5033042;28;20057;-74
2022/03/18 03:09:17;;;;;;;12.13;4.75;;;4.20;99.90;;;;;;5032373;28;20045;-73
2022/03/18 03:11:44;;;;;;;9.20;4.55;;;4.20;99.90;;;;;;5016240;28;20060;-73
2022/03/18 03:14:10;;;;;;;10.68;4.95;;;3.70;99.90;;;;;;5032715;28;20045;-74
2022/03/18 03:16:36;;;;;;;9.88;5.53;;;4.00;99.90;;;;;;5034168;28;20103;-73
2022/03/18 03:19:04;;;;;;;15.63;5.72;;;3.70;99.90;;;;;;5032945;28;20048;-73
2022/03/18 03:21:30;;;;;;;10.68;5.15;;;3.70;99.90;;;;;;5032155;28;20056;-73
2022/03/18 03:23:56;;;;;;;10.15;4.35;;;3.60;99.90;;;;;;5033616;28;20041;-73
2022/03/18 03:26:22;;;;;;;9.10;4.20;;;4.40;99.90;;;;;;5031497;28;20053;-73
2022/03/18 03:28:48;;;;;;;8.98;4.40;;;3.90;99.90;;;;;;5031934;28;20092;-73
2022/03/18 03:31:14;;;;;;;10.65;4.78;;;3.90;99.90;;;;;;5033686;28;20045;-73
2022/03/18 03:33:39;;;;;;;12.77;4.53;;;4.00;99.90;;;;;;5032770;28;20049;-73
2022/03/18 03:36:06;;;;;;;10.80;4.60;;;3.70;99.90;;;;;;5032286;28;20050;-74
2022/03/18 03:38:31;;;;;;;10.15;4.50;;;3.60;99.90;;;;;;5032113;28;20519;-73
2022/03/18 03:40:57;;;;;;;9.18;4.50;;;3.80;99.90;;;;;;5033170;28;20140;-73
2022/03/18 03:43:23;;;;;;;9.15;4.65;;;3.80;99.90;;;;;;5035373;28;20095;-73
2022/03/18 03:45:48;;;;;;;9.57;4.15;;;3.60;99.90;;;;;;5037184;28;20049;-73
2022/03/18 03:48:14;;;;;;;8.73;4.35;;;4.10;99.90;;;;;;5037041;28;20049;-73
2022/03/18 03:50:40;;;;;;;8.52;4.30;;;3.40;99.90;;;;;;5036796;28;20094;-73
2022/03/18 03:53:07;;;;;;;11.23;4.72;;;3.50;99.90;;;;;;5037165;28;20049;-73
2022/03/18 03:55:34;;;;;;;9.68;5.07;;;4.10;99.90;;;;;;5036589;28;20049;-73
2022/03/18 03:57:59;;;;;;;11.50;4.65;;;3.80;99.90;;;;;;5037012;28;20195;-73
2022/03/18 04:00:25;;;;;;;9.90;4.50;;;4.30;99.90;;;;;;5036829;28;20072;-74
2022/03/18 04:02:51;;;;;;;7.20;4.40;;;3.60;99.90;;;;;;5036029;28;20048;-73
2022/03/18 04:05:17;;;;;;;8.40;4.40;;;3.60;99.90;;;;;;5037313;28;20486;-73
2022/03/18 04:07:44;;;;;;;8.40;4.97;;;3.70;99.90;;;;;;5035798;28;20140;-73
2022/03/18 04:10:12;;;;;;;12.00;5.63;;;3.50;99.90;;;;;;5036883;28;20512;-74
2022/03/18 04:12:39;;;;;;;8.77;4.70;;;3.70;99.90;;;;;;5035220;28;20832;-73
2022/03/18 04:15:08;;;;;;;14.63;4.75;;;3.80;99.90;;;;;;5036373;28;20506;-74
2022/03/18 04:17:38;;;;;;;10.95;4.97;;;3.40;99.90;;;;;;5036574;28;20127;-73
2022/03/18 04:20:09;;;;;;;8.68;4.53;;;4.10;99.90;;;;;;5036544;28;20142;-73
2022/03/18 04:22:35;;;;;;;7.97;5.13;;;3.30;99.90;;;;;;5036537;28;20049;-73
2022/03/18 04:25:01;;;;;;;8.60;4.35;;;3.40;99.90;;;;;;5035412;28;20056;-73
2022/03/18 04:27:27;;;;;;;7.80;4.15;;;3.50;99.90;;;;;;5034736;28;20044;-73
2022/03/18 04:29:53;;;;;;;9.65;4.78;;;3.60;99.90;;;;;;5036404;28;20382;-73
2022/03/18 04:32:19;;;;;;;8.20;4.60;;;3.60;99.90;;;;;;5036139;28;20453;-72
2022/03/18 04:34:45;;;;;;;8.57;4.15;;;4.90;99.90;;;;;;5019103;28;20081;-73
2022/03/18 04:37:10;;;;;;;10.60;4.75;;;3.60;99.90;;;;;;5036462;28;20084;-72
2022/03/18 04:39:36;;;;;;;9.38;4.93;;;3.50;99.90;;;;;;5036347;28;20392;-72
2022/03/18 04:42:02;;;;;;;8.45;5.00;;;3.90;99.90;;;;;;5035685;28;20549;-73
2022/03/18 04:44:28;;;;;;;11.18;4.55;;;3.30;99.90;;;;;;5036169;28;20052;-73
2022/03/18 04:46:54;;;;;;;11.52;4.47;;;3.30;99.90;;;;;;5036538;28;20061;-73
2022/03/18 04:49:20;;;;;;;11.60;5.07;;;3.50;99.90;;;;;;5035789;28;20486;-73
2022/03/18 04:51:45;;;;;;;8.95;4.78;;;3.70;99.90;;;;;;5034422;28;20044;-72
2022/03/18 04:54:12;;;;;;;7.53;4.45;;;5.00;99.90;;;;;;5034782;28;20051;-73
2022/03/18 04:59:22;;;;;;;9.95;4.68;;;4.20;99.90;;;;;;5034790;28;20053;-73
2022/03/18 05:01:48;;;;;;;10.95;4.65;;;3.30;99.90;;;;;;5035857;28;20155;-73
2022/03/18 05:04:14;;;;;;;9.00;4.32;;;3.60;99.90;;;;;;5036652;28;20099;-73
2022/03/18 05:06:40;;;;;;;8.32;4.63;;;3.90;99.90;;;;;;5034723;28;20397;-73
2022/03/18 05:09:06;;;;;;;8.52;4.28;;;3.20;99.90;;;;;;5034419;28;20049;-73
2022/03/18 05:11:32;;;;;;;8.82;4.22;;;4.00;99.90;;;;;;5035629;28;20049;-73
2022/03/18 05:13:58;;;;;;;9.95;4.50;;;3.50;99.90;;;;;;5018250;28;20119;-73
2022/03/18 05:16:27;;;;;;;10.48;5.63;;;3.40;99.90;;;;;;5018022;28;20405;-74
2022/03/18 05:18:53;;;;;;;9.30;5.25;;;3.70;99.90;;;;;;5018110;28;20465;-73
2022/03/18 05:21:22;;;;;;;10.55;5.18;;;3.70;99.90;;;;;;5033819;28;20041;-74
2022/03/18 05:23:47;;;;;;;10.68;5.60;;;3.20;99.90;;;;;;5035488;28;20060;-72
2022/03/18 05:26:14;;;;;;;10.55;5.60;;;3.30;99.90;;;;;;5034700;28;20057;-72
2022/03/18 05:28:41;;;;;;;8.23;5.45;;;3.10;99.90;;;;;;5034417;28;20092;-72
2022/03/18 05:31:07;;;;;;;12.68;5.80;;;3.10;99.90;;;;;;5035152;28;20048;-72
2022/03/18 05:33:33;;;;;;;11.40;5.32;;;3.20;99.90;;;;;;5034674;28;20291;-73
2022/03/18 05:35:58;;;;;;;10.65;6.05;;;3.00;99.90;;;;;;5032257;28;20045;-73
2022/03/18 05:38:25;;;;;;;7.13;5.05;;;3.30;99.90;;;;;;5035024;28;20042;-72
2022/03/18 05:40:52;;;;;;;9.23;5.05;;;3.20;99.90;;;;;;5035049;28;20069;-72
2022/03/18 05:43:18;;;;;;;10.57;5.88;;;3.80;99.90;;;;;;5034143;28;20061;-72
2022/03/18 05:45:43;;;;;;;10.23;5.38;;;3.30;99.90;;;;;;5034763;28;20050;-73
2022/03/18 05:48:09;;;;;;;9.27;5.35;;;3.60;99.90;;;;;;5034992;28;20489;-73
2022/03/18 05:50:35;;;;;;;9.10;5.50;;;3.30;99.90;;;;;;5033351;28;20132;-73
2022/03/18 05:53:02;;;;;;;9.55;5.60;;;3.80;99.90;;;;;;5034780;28;20470;-73
2022/03/18 05:58:12;;;;;;;9.18;5.22;;;3.00;99.90;;;;;;5034938;28;20188;-73
2022/03/18 06:00:38;;;;;;;8.75;5.65;;;2.90;99.90;;;;;;5033495;28;20529;-73
2022/03/18 06:03:03;;;;;;;9.40;5.55;;;2.90;99.90;;;;;;5034538;28;20053;-73
2022/03/18 06:05:29;;;;;;;9.40;5.20;;;3.00;99.90;;;;;;5034509;28;20053;-73
2022/03/18 06:11:48;;;;;;;9.55;5.25;;;3.20;99.90;;;;;;5034921;28;20107;-73
2022/03/18 06:13:24;;;;;;;8.90;5.35;;;3.50;99.90;;;;;;5034376;28;20049;-72
2022/03/18 06:15:50;;;;;;;7.93;5.53;;;3.40;99.90;;;;;;5034517;28;20045;-72
2022/03/18 06:18:16;;;;;;;7.88;4.97;;;2.80;99.90;;;;;;5034824;28;20041;-72
2022/03/18 06:20:41;;;;;;;9.38;5.28;;;2.90;99.90;;;;;;5034191;28;20052;-73
2022/03/18 06:23:07;;;;;;;9.35;5.28;;;4.00;99.90;;;;;;5032988;28;20148;-72
2022/03/18 06:25:33;;;;;;;10.27;5.78;;;2.90;99.90;;;;;;5033356;28;20107;-73
2022/03/18 06:27:58;;;;;;;8.50;5.68;;;3.10;99.90;;;;;;5034067;28;20041;-72
2022/03/18 06:30:25;;;;;;;10.85;5.80;;;4.20;99.90;;;;;;5016060;28;20128;-73
2022/03/18 06:32:51;;;;;;;9.73;5.53;;;3.30;99.90;;;;;;5033733;28;20084;-74
2022/03/18 06:35:16;;;;;;;10.60;6.28;;;3.30;99.90;;;;;;5034053;28;20494;-74
2022/03/18 06:37:42;;;;;;;10.82;6.93;;;3.80;99.90;;;;;;5034075;28;20037;-74
2022/03/18 06:40:08;;;;;;;9.50;6.78;;;3.20;99.90;;;;;;5033724;28;20041;-74
2022/03/18 06:42:34;;;;;;;10.13;6.90;;;3.20;99.90;;;;;;5032498;28;20102;-74
2022/03/18 06:45:00;;;;;;;10.80;6.57;;;3.10;99.90;;;;;;5033758;28;20041;-74
2022/03/18 06:47:27;;;;;;;11.98;7.40;;;3.30;99.90;;;;;;5033571;28;20087;-74
2022/03/18 06:49:52;;;;;;;9.82;6.18;;;3.30;99.90;;;;;;5034200;28;20466;-74
2022/03/18 06:52:18;;;;;;;9.95;6.82;;;3.70;99.90;;;;;;5033374;28;20096;-74
2022/03/18 06:54:44;;;;;;;10.75;7.07;;;3.30;99.90;;;;;;5033588;28;20184;-74
2022/03/18 06:57:09;;;;;;;8.38;6.38;;;3.80;99.90;;;;;;5032919;28;20084;-74
2022/03/18 06:59:35;;;;;;;11.63;6.95;;;4.30;99.90;;;;;;5033804;28;20034;-74
2022/03/18 07:02:01;;;;;;;9.25;6.28;;;3.90;99.90;;;;;;5032467;28;20168;-74
2022/03/18 07:04:27;;;;;;;10.00;6.78;;;3.80;99.90;;;;;;5033631;28;20081;-74
2022/03/18 07:06:52;;;;;;;10.43;6.88;;;4.70;99.90;;;;;;5032573;28;20041;-74
2022/03/18 07:09:18;;;;;;;13.48;7.25;;;3.90;99.90;;;;;;5032567;28;20497;-74
2022/03/18 07:11:43;;;;;;;13.20;7.00;;;4.10;99.90;;;;;;5033316;28;20554;-74
2022/03/18 07:14:09;;;;;;;8.90;6.88;;;4.20;99.90;;;;;;5033354;28;20368;-74
2022/03/18 07:19:19;;;;;;;9.90;7.20;;;4.10;99.90;;;;;;5038950;28;20049;-74
2022/03/18 07:21:44;;;;;;;12.82;8.00;;;4.50;99.90;;;;;;5038544;28;20544;-74
2022/03/18 07:24:10;;;;;;;12.48;7.65;;;4.70;99.90;;;;;;5040016;28;20041;-74
2022/03/18 07:26:36;;;;;;;14.55;7.75;;;4.40;99.90;;;;;;5039453;28;20045;-74
2022/03/18 07:29:04;;;;;;;11.82;7.75;;;5.00;99.90;;;;;;5039946;28;20393;-74
2022/03/18 07:31:30;;;;;;;11.23;8.13;;;4.50;99.90;;;;;;5039800;28;20045;-74
2022/03/18 07:33:55;;;;;;;11.27;8.35;;;4.60;99.90;;;;;;5038713;28;20096;-74
2022/03/18 07:36:24;;;;;;;13.05;8.35;;;4.50;99.90;;;;;;5036900;28;20049;-74
2022/03/18 07:38:50;;;;;;;13.05;8.15;;;4.70;99.90;;;;;;5038698;28;20095;-74
2022/03/18 07:41:17;;;;;;;14.68;8.15;;;5.30;99.90;;;;;;5039693;28;20041;-74
2022/03/18 07:43:42;;;;;;;12.70;8.23;;;5.50;99.90;;;;;;5039752;28;20056;-74
2022/03/18 07:46:08;;;;;;;13.27;9.50;;;5.00;99.90;;;;;;5038450;28;20045;-74
2022/03/18 07:48:36;;;;;;;13.35;8.25;;;5.00;99.90;;;;;;5040077;28;20053;-73
2022/03/18 07:51:01;;;;;;;15.43;10.27;;;5.80;99.90;;;;;;5038316;28;20473;-74
2022/03/18 07:53:27;;;;;;;12.43;9.05;;;5.40;99.90;;;;;;5039512;28;20194;-74
2022/03/18 07:55:53;;;;;;;14.63;8.80;;;5.50;99.90;;;;;;5004443;28;20076;-74
2022/03/18 07:58:18;;;;;;;17.95;9.48;;;5.60;99.90;;;;;;5039740;28;20068;-74
2022/03/18 08:00:44;;;;;;;14.60;9.27;;;5.90;99.90;;;;;;5039528;28;20450;-74
2022/03/18 08:03:11;;;;;;;13.55;9.20;;;6.10;99.90;;;;;;5039684;28;20489;-74
2022/03/18 08:05:36;;;;;;;19.70;9.50;;;5.70;99.90;;;;;;5039428;28;20124;-74
2022/03/18 08:08:02;;;;;;;16.10;9.30;;;5.70;99.90;;;;;;5022193;28;20148;-75
2022/03/18 08:10:29;;;;;;;14.88;9.95;;;5.70;99.90;;;;;;5039508;28;20041;-74
2022/03/18 08:12:54;;;;;;;13.48;9.55;;;6.30;99.90;;;;;;5038465;28;20057;-74
2022/03/18 08:15:21;;;;;;;17.55;10.73;;;6.20;99.90;;;;;;5039526;28;20128;-74
2022/03/18 08:17:52;;;;;;;18.90;9.73;;;6.60;99.90;;;;;;5039513;28;20486;-74
2022/03/18 08:20:19;;;;;;;15.82;10.18;;;6.30;99.90;;;;;;5039507;28;20417;-74
2022/03/18 08:22:45;;;;;;;18.50;10.15;;;6.50;99.90;;;;;;5039122;28;20424;-74
2022/03/18 08:25:11;;;;;;;17.23;10.48;;;6.50;99.90;;;;;;5039505;28;20052;-75
2022/03/18 08:27:37;;;;;;;15.38;10.35;;;6.60;99.90;;;;;;5037940;28;20115;-74
2022/03/18 08:30:08;;;;;;;15.45;10.55;;;6.70;99.90;;;;;;5037067;28;20187;-74
2022/03/18 08:32:34;;;;;;;15.77;10.73;;;6.70;99.90;;;;;;5035677;28;20513;-74
2022/03/18 08:35:00;;;;;;;13.98;9.57;;;6.90;99.90;;;;;;5036723;28;20045;-75
2022/03/18 08:40:13;;;;;;;15.93;9.45;;;6.90;99.90;;;;;;5019557;28;20568;-75
2022/03/18 08:42:39;;;;;;;19.25;10.10;;;6.90;99.90;;;;;;5035994;28;20120;-73
2022/03/18 08:45:05;;;;;;;15.98;9.85;;;7.30;99.90;;;;;;5035800;28;20554;-74
2022/03/18 08:47:31;;;;;;;16.30;10.23;;;7.10;99.90;;;;;;5034495;28;20206;-72
2022/03/18 08:49:57;;;;;;;21.40;10.55;;;7.20;99.90;;;;;;5033403;28;20064;-73
2022/03/18 08:52:23;;;;;;;17.48;9.77;;;7.20;99.90;;;;;;5036190;28;20153;-71
2022/03/18 08:54:49;;;;;;;15.25;10.30;;;7.40;99.90;;;;;;5034334;28;20566;-71
2022/03/18 08:57:16;;;;;;;15.25;10.27;;;7.40;99.90;;;;;;5031246;28;20049;-70
2022/03/18 08:59:42;;;;;;;16.50;10.82;;;7.40;99.90;;;;;;5036065;28;20042;-81
2022/03/18 09:02:08;;;;;;;16.85;10.43;;;7.50;99.90;;;;;;5034980;28;20056;-71
2022/03/18 09:04:33;;;;;;;15.75;9.80;;;7.70;99.90;;;;;;5035935;28;20073;-71
2022/03/18 09:06:59;;;;;;;19.30;10.07;;;7.60;99.90;;;;;;5030223;28;20492;-73
2022/03/18 09:09:25;;;;;;;14.00;10.20;;;8.10;99.90;;;;;;5009460;28;20076;-73
2022/03/18 09:11:50;;;;;;;18.88;10.20;;;7.60;99.90;;;;;;5033453;28;20041;-71
2022/03/18 09:14:16;;;;;;;17.77;10.27;;;7.70;99.90;;;;;;5028525;28;20043;-72
2022/03/18 09:16:42;;;;;;;15.75;10.57;;;7.90;99.90;;;;;;5026739;28;20065;-71
2022/03/18 09:19:08;;;;;;;16.77;9.60;;;8.00;99.90;;;;;;5025196;28;20481;-70
2022/03/18 09:21:34;;;;;;;15.40;9.55;;;7.90;99.90;;;;;;5030219;28;20099;-74
2022/03/18 09:24:01;;;;;;;15.98;10.15;;;8.30;99.90;;;;;;5034933;28;20044;-75
2022/03/18 09:26:27;;;;;;;15.77;10.13;;;8.10;99.90;;;;;;5028227;28;20140;-73
2022/03/18 09:28:53;;;;;;;17.65;10.40;;;8.20;99.90;;;;;;5025898;28;20120;-73
2022/03/18 09:31:19;;;;;;;16.33;9.50;;;8.20;99.90;;;;;;5025068;28;20125;-80
2022/03/18 09:33:46;;;;;;;12.85;8.50;;;8.20;99.90;;;;;;5026522;28;20063;-80
2022/03/18 09:36:17;;;;;;;15.48;9.38;;;8.30;99.90;;;;;;5025753;28;20076;-80
2022/03/18 09:38:43;;;;;;;16.83;9.68;;;8.50;99.90;;;;;;5028780;28;20096;-81
2022/03/18 09:41:09;;;;;;;18.10;9.52;;;8.50;99.90;;;;;;5024592;28;20489;-81
2022/03/18 09:43:37;;;;;;;18.23;10.43;;;9.00;99.90;;;;;;5025758;28;20053;-77
2022/03/18 09:46:09;;;;;;;19.20;9.52;;;8.60;99.90;;;;;;5025810;28;20038;-75
2022/03/18 09:48:35;;;;;;;14.82;9.85;;;8.60;99.90;;;;;;5025716;28;20511;-81
2022/03/18 09:51:01;;;;;;;13.30;9.85;;;8.60;99.90;;;;;;5025733;28;20156;-81
2022/03/18 09:53:27;;;;;;;18.90;9.68;;;8.70;99.90;;;;;;5023356;28;20100;-81
2022/03/18 09:55:53;;;;;;;13.57;9.27;;;8.80;99.90;;;;;;5005654;28;20128;-81
2022/03/18 09:58:20;;;;;;;12.93;8.73;;;8.80;99.90;;;;;;5018514;28;20045;-75
2022/03/18 10:00:46;;;;;;;14.73;9.27;;;8.90;99.90;;;;;;5013267;28;20560;-75
2022/03/18 10:03:16;;;;;;;14.65;9.32;;;9.00;99.90;;;;;;5023516;28;20049;-75
2022/03/18 10:06:02;;;;;;;18.65;10.73;;;9.10;99.90;;;;;;5018226;28;20161;-74
2022/03/18 10:08:42;;;;;;;14.10;9.43;;;9.10;99.90;;;;;;5021524;28;20045;-74
2022/03/18 10:11:18;;;;;;;15.32;9.88;;;9.30;99.90;;;;;;5023928;28;20057;-74
2022/03/18 10:13:52;;;;;;;16.38;9.48;;;9.40;99.90;;;;;;5022157;28;20057;-76
2022/03/18 10:16:44;;;;;;;17.73;9.30;;;9.30;99.90;;;;;;5020793;28;20144;-77
2022/03/18 10:19:18;;;;;;;12.50;8.68;;;9.50;99.90;;;;;;5024265;28;20106;-77
2022/03/18 10:21:53;;;;;;;15.88;8.90;;;9.50;99.90;;;;;;5021275;28;20064;-76
2022/03/18 10:24:32;;;;;;;13.02;8.80;;;9.60;99.90;;;;;;5020917;28;20053;-74
2022/03/18 10:27:15;;;;;;;15.48;8.82;;;9.70;99.90;;;;;;5017628;28;20485;-74
2022/03/18 10:29:46;;;;;;;16.63;9.65;;;9.70;99.90;;;;;;5020448;28;20568;-75
2022/03/18 10:32:13;;;;;;;17.60;9.80;;;9.80;99.90;;;;;;5025062;28;20042;-74
2022/03/18 10:37:50;;;;;;;17.40;9.55;;;9.90;99.90;;;;;;5022634;28;20057;-74
2022/03/18 10:40:30;;;;;;;18.67;9.45;;;9.90;99.90;;;;;;5026387;28;20242;-75
2022/03/18 10:43:02;;;;;;;19.67;8.90;;;9.90;99.90;;;;;;5025661;28;20052;-75
2022/03/18 10:45:28;;;;;;;14.50;8.65;;;10.00;99.90;;;;;;5019850;28;20520;-76
2022/03/18 10:47:54;;;;;;;13.57;8.73;;;10.10;99.90;;;;;;5023530;28;20050;-76
2022/03/18 10:50:26;;;;;;;13.32;8.25;;;10.10;99.90;;;;;;5025908;28;20060;-75
2022/03/18 10:52:58;;;;;;;17.35;8.75;;;10.20;99.90;;;;;;5026284;28;20045;-76
2022/03/18 10:55:38;;;;;;;13.48;8.65;;;10.30;99.90;;;;;;5027323;28;20053;-75
2022/03/18 10:58:07;;;;;;;17.90;8.50;;;10.20;99.90;;;;;;5025249;28;20049;-75
2022/03/18 11:00:35;;;;;;;17.52;9.85;;;10.30;99.90;;;;;;5023722;28;20053;-75
2022/03/18 11:03:02;;;;;;;13.40;8.85;;;10.80;99.90;;;;;;5027972;28;20179;-77
2022/03/18 11:05:32;;;;;;;15.57;9.70;;;10.40;99.90;;;;;;5026735;28;20059;-77
2022/03/18 11:08:03;;;;;;;14.73;9.40;;;10.40;99.90;;;;;;5027935;28;20516;-77
2022/03/18 11:13:15;;;;;;;15.05;8.65;;;10.50;99.90;;;;;;5023202;28;20053;-73
2022/03/18 11:15:44;;;;;;;18.00;8.70;;;10.60;99.90;;;;;;5011557;28;20141;-74
2022/03/18 11:18:11;;;;;;;11.85;7.82;;;10.70;99.90;;;;;;5025061;28;20045;-73
2022/03/18 11:20:44;;;;;;;17.92;7.82;;;10.70;99.90;;;;;;5021424;28;20184;-73
2022/03/18 11:23:18;;;;;;;15.13;9.73;;;10.80;99.90;;;;;;5026816;28;20049;-74
2022/03/18 11:25:48;;;;;;;14.90;8.00;;;10.90;99.90;;;;;;5003428;28;20057;-73
2022/03/18 11:28:17;;;;;;;12.07;7.20;;;10.90;99.90;;;;;;5021344;28;20404;-73
2022/03/18 11:30:44;;;;;;;12.30;6.88;;;10.90;99.90;;;;;;5020865;28;20030;-73
2022/03/18 11:33:11;;;;;;;15.13;7.15;;;10.90;99.90;;;;;;5021447;28;20413;-74
2022/03/18 11:35:49;;;;;;;12.00;7.13;;;11.00;99.90;;;;;;5023211;28;20053;-74
2022/03/18 11:38:26;;;;;;;15.30;7.05;;;11.00;99.90;;;;;;5023192;28;20139;-73
2022/03/18 11:41:04;;;;;;;12.00;7.70;;;11.00;99.90;;;;;;5027145;28;20045;-73
2022/03/18 11:43:31;;;;;;;14.88;7.50;;;11.10;99.90;;;;;;5019635;28;20482;-73
2022/03/18 11:46:16;;;;;;;12.45;7.18;;;11.10;99.90;;;;;;5022162;28;20053;-74
2022/03/18 11:48:49;;;;;;;31.75;10.73;;;11.20;99.90;;;;;;5019535;28;20072;-73
2022/03/18 11:51:33;;;;;;;36.13;11.20;;;11.20;99.90;;;;;;5020171;28;20887;-73
2022/03/18 11:54:00;;;;;;;15.52;7.88;;;11.30;99.90;;;;;;5017870;28;20041;-74
2022/03/18 11:56:48;;;;;;;16.27;8.40;;;11.50;99.90;;;;;;5014783;28;20050;-77
2022/03/18 11:59:29;;;;;;;13.95;8.20;;;11.50;99.90;;;;;;5019606;28;20191;-78
2022/03/18 12:02:02;;;;;;;12.00;7.32;;;11.60;99.90;;;;;;5014616;28;20106;-78
2022/03/18 12:04:38;;;;;;;12.65;7.25;;;11.70;99.90;;;;;;5023171;28;20061;-79
2022/03/18 12:07:07;;;;;;;13.15;7.13;;;11.70;99.90;;;;;;5021425;28;20510;-77
2022/03/18 12:09:53;;;;;;;13.32;7.72;;;11.80;99.90;;;;;;5024115;28;20711;-81
2022/03/18 12:12:23;;;;;;;13.30;7.10;;;11.80;99.90;;;;;;5021016;28;20498;-78
2022/03/18 12:14:54;;;;;;;32.95;17.35;;;11.90;99.90;;;;;;5021679;28;20068;-76
2022/03/18 12:17:21;;;;;;;12.48;8.00;;;11.90;99.90;;;;;;5018947;28;21183;-76
2022/03/18 12:19:59;;;;;;;13.68;8.65;;;12.00;99.90;;;;;;5020589;28;20041;-76
2022/03/18 12:22:28;;;;;;;15.45;8.07;;;12.00;99.90;;;;;;5023014;28;20486;-75
2022/03/18 12:24:55;;;;;;;12.23;8.20;;;12.00;99.90;;;;;;5024223;28;20563;-76
2022/03/18 12:27:36;;;;;;;12.75;6.68;;;12.00;99.90;;;;;;5023867;28;20824;-76
2022/03/18 12:30:05;;;;;;;15.15;8.57;;;12.10;99.90;;;;;;5023214;28;20142;-76
2022/03/18 12:32:31;;;;;;;11.27;7.90;;;12.10;99.90;;;;;;5023713;28;20053;-75
2022/03/18 12:34:57;;;;;;;11.20;6.60;;;12.10;99.90;;;;;;5021799;28;20077;-75
2022/03/18 12:37:31;;;;;;;14.50;6.30;;;12.10;99.90;;;;;;5026500;28;20556;-74
2022/03/18 12:40:10;;;;;;;13.77;7.50;;;12.20;99.90;;;;;;5029613;28;20149;-75
2022/03/18 12:42:52;;;;;;;10.95;5.13;;;12.20;99.90;;;;;;5020896;28;20061;-75
2022/03/18 12:45:42;;;;;;;12.05;6.03;;;12.20;99.90;;;;;;5020365;28;20339;-76
2022/03/18 12:48:10;;;;;;;11.43;5.28;;;12.30;99.90;;;;;;5020088;28;20051;-76
2022/03/18 12:50:50;;;;;;;10.57;5.93;;;12.30;99.90;;;;;;5021252;28;20481;-75
2022/03/18 12:53:18;;;;;;;9.25;4.60;;;12.40;99.90;;;;;;5020677;28;20174;-76
2022/03/18 12:55:46;;;;;;;19.05;6.80;;;12.40;99.90;;;;;;5019347;28;20053;-75
2022/03/18 12:58:13;;;;;;;10.55;6.60;;;12.40;99.90;;;;;;5024047;28;20068;-77
2022/03/18 13:00:44;;;;;;;14.00;5.75;;;12.40;99.90;;;;;;5005845;28;20509;-79
2022/03/18 13:03:23;;;;;;;13.77;6.70;;;12.50;99.90;;;;;;5021891;28;20151;-74
2022/03/18 13:05:52;;;;;;;11.27;6.32;;;12.50;99.90;;;;;;5022182;28;20091;-74
2022/03/18 13:08:19;;;;;;;15.07;6.70;;;12.50;99.90;;;;;;5027616;28;20048;-75
2022/03/18 13:10:59;;;;;;;14.10;7.15;;;12.60;99.90;;;;;;5025056;28;20605;-74
2022/03/18 13:13:27;;;;;;;11.02;6.68;;;12.60;99.90;;;;;;5022420;28;20144;-74
2022/03/18 13:16:04;;;;;;;16.23;7.20;;;12.70;99.90;;;;;;5021999;28;20472;-73